sensor_id;sensor_type;location;lat;lon;timestamp;pressure;altitude;pressure_sealevel;temperature;humidity
34374;BME280;20637;55.770;37.592;2024-01-30T00:01:13;100781.25;;;0.18;81.43
34374;BME280;20637;55.770;37.592;2024-01-30T00:03:39;100783.06;;;0.18;81.43
34374;BME280;20637;55.770;37.592;2024-01-30T00:06:04;100796.28;;;0.19;81.30
34374;BME280;20637;55.770;37.592;2024-01-30T00:08:30;100791.94;;;0.17;81.36
34374;BME280;20637;55.770;37.592;2024-01-30T00:10:56;100800.78;;;0.17;80.85
34374;BME280;20637;55.770;37.592;2024-01-30T00:13:21;100786.34;;;0.23;81.46
34374;BME280;20637;55.770;37.592;2024-01-30T00:15:48;100793.31;;;0.25;81.38
34374;BME280;20637;55.770;37.592;2024-01-30T00:18:14;100789.50;;;0.31;81.54
34374;BME280;20637;55.770;37.592;2024-01-30T00:20:40;100788.53;;;0.32;81.09
34374;BME280;20637;55.770;37.592;2024-01-30T00:23:06;100785.19;;;0.28;81.06
34374;BME280;20637;55.770;37.592;2024-01-30T00:25:31;100781.75;;;0.26;81.23
34374;BME280;20637;55.770;37.592;2024-01-30T00:27:58;100787.78;;;0.30;80.97
34374;BME280;20637;55.770;37.592;2024-01-30T00:30:24;100773.63;;;0.29;81.07
34374;BME280;20637;55.770;37.592;2024-01-30T00:32:50;100785.41;;;0.24;81.24
34374;BME280;20637;55.770;37.592;2024-01-30T00:35:16;100776.44;;;0.26;81.45
34374;BME280;20637;55.770;37.592;2024-01-30T00:37:41;100787.84;;;0.28;81.33
34374;BME280;20637;55.770;37.592;2024-01-30T00:40:07;100775.47;;;0.27;81.33
34374;BME280;20637;55.770;37.592;2024-01-30T00:42:35;100774.56;;;0.28;80.91
34374;BME280;20637;55.770;37.592;2024-01-30T00:45:01;100778.06;;;0.29;80.86
34374;BME280;20637;55.770;37.592;2024-01-30T00:47:29;100773.47;;;0.32;80.77
34374;BME280;20637;55.770;37.592;2024-01-30T00:49:55;100785.03;;;0.31;80.85
34374;BME280;20637;55.770;37.592;2024-01-30T00:52:21;100772.00;;;0.27;81.02
34374;BME280;20637;55.770;37.592;2024-01-30T00:54:46;100777.38;;;0.25;80.72
34374;BME280;20637;55.770;37.592;2024-01-30T00:57:12;100764.84;;;0.27;81.22
34374;BME280;20637;55.770;37.592;2024-01-30T00:59:38;100779.66;;;0.33;80.77
34374;BME280;20637;55.770;37.592;2024-01-30T01:02:04;100773.31;;;0.35;80.82
34374;BME280;20637;55.770;37.592;2024-01-30T01:04:29;100770.53;;;0.38;81.24
34374;BME280;20637;55.770;37.592;2024-01-30T01:06:55;100777.41;;;0.42;81.19
34374;BME280;20637;55.770;37.592;2024-01-30T01:09:20;100770.28;;;0.43;80.83
34374;BME280;20637;55.770;37.592;2024-01-30T01:11:46;100762.41;;;0.41;81.32
34374;BME280;20637;55.770;37.592;2024-01-30T01:14:12;100766.84;;;0.41;81.01
34374;BME280;20637;55.770;37.592;2024-01-30T01:16:37;100764.03;;;0.44;80.97
34374;BME280;20637;55.770;37.592;2024-01-30T01:19:03;100765.75;;;0.45;80.85
34374;BME280;20637;55.770;37.592;2024-01-30T01:21:29;100762.25;;;0.44;80.76
34374;BME280;20637;55.770;37.592;2024-01-30T01:23:54;100763.81;;;0.48;80.58
34374;BME280;20637;55.770;37.592;2024-01-30T01:26:20;100762.06;;;0.47;81.04
34374;BME280;20637;55.770;37.592;2024-01-30T01:28:46;100761.22;;;0.47;80.81
34374;BME280;20637;55.770;37.592;2024-01-30T01:31:12;100756.94;;;0.44;80.81
34374;BME280;20637;55.770;37.592;2024-01-30T01:33:38;100751.59;;;0.44;81.05
34374;BME280;20637;55.770;37.592;2024-01-30T01:36:03;100743.47;;;0.47;80.99
34374;BME280;20637;55.770;37.592;2024-01-30T01:38:29;100748.56;;;0.52;80.84
34374;BME280;20637;55.770;37.592;2024-01-30T01:40:55;100748.63;;;0.51;80.70
34374;BME280;20637;55.770;37.592;2024-01-30T01:43:21;100738.97;;;0.50;80.54
34374;BME280;20637;55.770;37.592;2024-01-30T01:45:46;100733.72;;;0.48;80.41
34374;BME280;20637;55.770;37.592;2024-01-30T01:48:12;100723.88;;;0.50;80.73
34374;BME280;20637;55.770;37.592;2024-01-30T01:50:38;100737.25;;;0.48;80.31
34374;BME280;20637;55.770;37.592;2024-01-30T01:53:08;100730.28;;;0.46;80.42
34374;BME280;20637;55.770;37.592;2024-01-30T01:55:34;100733.78;;;0.46;80.67
34374;BME280;20637;55.770;37.592;2024-01-30T01:58:01;100738.00;;;0.51;80.70
34374;BME280;20637;55.770;37.592;2024-01-30T02:00:27;100744.03;;;0.54;80.35
34374;BME280;20637;55.770;37.592;2024-01-30T02:02:54;100743.25;;;0.52;80.74
34374;BME280;20637;55.770;37.592;2024-01-30T02:05:21;100739.91;;;0.48;80.25
34374;BME280;20637;55.770;37.592;2024-01-30T02:07:47;100723.78;;;0.52;80.22
34374;BME280;20637;55.770;37.592;2024-01-30T02:10:13;100729.09;;;0.52;80.64
34374;BME280;20637;55.770;37.592;2024-01-30T02:12:39;100727.16;;;0.55;80.56
34374;BME280;20637;55.770;37.592;2024-01-30T02:15:05;100735.97;;;0.56;80.59
34374;BME280;20637;55.770;37.592;2024-01-30T02:17:38;100735.22;;;0.54;80.49
34374;BME280;20637;55.770;37.592;2024-01-30T02:20:04;100727.09;;;0.57;80.48
34374;BME280;20637;55.770;37.592;2024-01-30T02:22:33;100737.63;;;0.58;80.86
34374;BME280;20637;55.770;37.592;2024-01-30T02:25:00;100732.16;;;0.61;80.48
34374;BME280;20637;55.770;37.592;2024-01-30T02:27:26;100742.78;;;0.61;80.46
34374;BME280;20637;55.770;37.592;2024-01-30T02:29:51;100734.88;;;0.60;80.79
34374;BME280;20637;55.770;37.592;2024-01-30T02:32:17;100726.22;;;0.56;80.20
34374;BME280;20637;55.770;37.592;2024-01-30T02:34:43;100726.22;;;0.56;80.63
34374;BME280;20637;55.770;37.592;2024-01-30T02:37:08;100726.06;;;0.59;80.32
34374;BME280;20637;55.770;37.592;2024-01-30T02:39:34;100738.41;;;0.60;80.70
34374;BME280;20637;55.770;37.592;2024-01-30T02:42:00;100727.78;;;0.60;80.48
34374;BME280;20637;55.770;37.592;2024-01-30T02:44:26;100733.09;;;0.60;80.36
34374;BME280;20637;55.770;37.592;2024-01-30T02:46:51;100726.84;;;0.61;80.73
34374;BME280;20637;55.770;37.592;2024-01-30T02:49:19;100724.09;;;0.63;80.49
34374;BME280;20637;55.770;37.592;2024-01-30T02:51:45;100723.00;;;0.67;80.49
34374;BME280;20637;55.770;37.592;2024-01-30T02:54:11;100718.47;;;0.69;80.49
34374;BME280;20637;55.770;37.592;2024-01-30T02:56:36;100719.59;;;0.65;81.05
34374;BME280;20637;55.770;37.592;2024-01-30T02:59:02;100730.22;;;0.65;80.63
34374;BME280;20637;55.770;37.592;2024-01-30T03:01:27;100724.72;;;0.68;80.70
34374;BME280;20637;55.770;37.592;2024-01-30T03:03:53;100726.34;;;0.70;80.54
34374;BME280;20637;55.770;37.592;2024-01-30T03:06:19;100727.06;;;0.74;80.66
34374;BME280;20637;55.770;37.592;2024-01-30T03:08:45;100735.72;;;0.77;80.70
34374;BME280;20637;55.770;37.592;2024-01-30T03:11:11;100742.88;;;0.77;80.34
34374;BME280;20637;55.770;37.592;2024-01-30T03:13:37;100737.44;;;0.78;80.23
34374;BME280;20637;55.770;37.592;2024-01-30T03:16:02;100752.53;;;0.78;80.76
34374;BME280;20637;55.770;37.592;2024-01-30T03:18:28;100742.16;;;0.73;80.78
34374;BME280;20637;55.770;37.592;2024-01-30T03:20:54;100751.94;;;0.73;80.22
34374;BME280;20637;55.770;37.592;2024-01-30T03:23:19;100757.09;;;0.76;80.41
34374;BME280;20637;55.770;37.592;2024-01-30T03:25:45;100759.56;;;0.79;80.65
34374;BME280;20637;55.770;37.592;2024-01-30T03:28:11;100759.75;;;0.76;80.17
34374;BME280;20637;55.770;37.592;2024-01-30T03:30:36;100758.19;;;0.72;80.63
34374;BME280;20637;55.770;37.592;2024-01-30T03:33:02;100752.69;;;0.75;80.63
34374;BME280;20637;55.770;37.592;2024-01-30T03:35:28;100760.59;;;0.76;80.60
34374;BME280;20637;55.770;37.592;2024-01-30T03:37:53;100751.44;;;0.82;80.50
34374;BME280;20637;55.770;37.592;2024-01-30T03:40:19;100733.53;;;0.85;80.70
34374;BME280;20637;55.770;37.592;2024-01-30T03:42:45;100745.72;;;0.89;80.52
34374;BME280;20637;55.770;37.592;2024-01-30T03:45:11;100745.50;;;0.94;80.76
34374;BME280;20637;55.770;37.592;2024-01-30T03:47:36;100754.16;;;0.98;80.80
34374;BME280;20637;55.770;37.592;2024-01-30T03:50:02;100757.91;;;0.93;80.51
34374;BME280;20637;55.770;37.592;2024-01-30T03:52:30;100760.56;;;0.93;80.77
34374;BME280;20637;55.770;37.592;2024-01-30T03:54:56;100755.25;;;0.93;80.44
34374;BME280;20637;55.770;37.592;2024-01-30T03:57:21;100765.81;;;0.95;80.66
34374;BME280;20637;55.770;37.592;2024-01-30T03:59:47;100772.06;;;0.94;80.69
34374;BME280;20637;55.770;37.592;2024-01-30T04:02:13;100759.63;;;0.94;80.36
34374;BME280;20637;55.770;37.592;2024-01-30T04:04:38;100769.34;;;0.95;80.73
34374;BME280;20637;55.770;37.592;2024-01-30T04:07:04;100765.75;;;0.97;80.68
34374;BME280;20637;55.770;37.592;2024-01-30T04:09:30;100770.81;;;1.01;80.75
34374;BME280;20637;55.770;37.592;2024-01-30T04:11:56;100767.03;;;1.05;80.94
34374;BME280;20637;55.770;37.592;2024-01-30T04:14:21;100760.03;;;1.04;80.68
34374;BME280;20637;55.770;37.592;2024-01-30T04:16:47;100763.47;;;1.06;80.69
34374;BME280;20637;55.770;37.592;2024-01-30T04:19:12;100749.94;;;1.11;81.09
34374;BME280;20637;55.770;37.592;2024-01-30T04:21:38;100761.31;;;1.13;80.88
34374;BME280;20637;55.770;37.592;2024-01-30T04:24:04;100766.41;;;1.17;80.63
34374;BME280;20637;55.770;37.592;2024-01-30T04:26:30;100759.13;;;1.21;81.04
34374;BME280;20637;55.770;37.592;2024-01-30T04:28:56;100760.59;;;1.26;80.82
34374;BME280;20637;55.770;37.592;2024-01-30T04:31:21;100765.94;;;1.26;80.97
34374;BME280;20637;55.770;37.592;2024-01-30T04:33:47;100747.06;;;1.31;80.60
34374;BME280;20637;55.770;37.592;2024-01-30T04:36:12;100760.25;;;1.32;80.47
34374;BME280;20637;55.770;37.592;2024-01-30T04:38:38;100756.75;;;1.32;80.79
34374;BME280;20637;55.770;37.592;2024-01-30T04:41:05;100762.16;;;1.30;80.69
34374;BME280;20637;55.770;37.592;2024-01-30T04:43:30;100759.50;;;1.30;80.69
34374;BME280;20637;55.770;37.592;2024-01-30T04:45:56;100757.72;;;1.31;80.49
34374;BME280;20637;55.770;37.592;2024-01-30T04:48:22;100758.63;;;1.30;80.62
34374;BME280;20637;55.770;37.592;2024-01-30T04:50:47;100765.41;;;1.35;80.72
34374;BME280;20637;55.770;37.592;2024-01-30T04:53:13;100763.38;;;1.40;80.46
34374;BME280;20637;55.770;37.592;2024-01-30T04:55:38;100758.06;;;1.40;80.73
34374;BME280;20637;55.770;37.592;2024-01-30T04:58:04;100755.16;;;1.45;80.55
34374;BME280;20637;55.770;37.592;2024-01-30T05:00:30;100764.75;;;1.48;80.18
34374;BME280;20637;55.770;37.592;2024-01-30T05:02:55;100753.78;;;1.54;80.40
34374;BME280;20637;55.770;37.592;2024-01-30T05:05:21;100756.22;;;1.58;80.56
34374;BME280;20637;55.770;37.592;2024-01-30T05:07:47;100756.03;;;1.61;80.29
34374;BME280;20637;55.770;37.592;2024-01-30T05:10:13;100753.63;;;1.57;80.28
34374;BME280;20637;55.770;37.592;2024-01-30T05:12:39;100744.69;;;1.58;80.38
34374;BME280;20637;55.770;37.592;2024-01-30T05:15:06;100758.06;;;1.56;80.09
34374;BME280;20637;55.770;37.592;2024-01-30T05:17:31;100743.91;;;1.56;80.03
34374;BME280;20637;55.770;37.592;2024-01-30T05:19:57;100753.69;;;1.55;79.93
34374;BME280;20637;55.770;37.592;2024-01-30T05:22:23;100763.31;;;1.58;80.12
34374;BME280;20637;55.770;37.592;2024-01-30T05:24:48;100762.47;;;1.57;80.16
34374;BME280;20637;55.770;37.592;2024-01-30T05:27:14;100777.50;;;1.58;80.21
34374;BME280;20637;55.770;37.592;2024-01-30T05:29:40;100779.38;;;1.56;80.25
34374;BME280;20637;55.770;37.592;2024-01-30T05:32:06;100772.94;;;1.60;80.41
34374;BME280;20637;55.770;37.592;2024-01-30T05:34:32;100776.28;;;1.64;80.21
34374;BME280;20637;55.770;37.592;2024-01-30T05:36:58;100783.16;;;1.68;80.44
34374;BME280;20637;55.770;37.592;2024-01-30T05:39:24;100771.41;;;1.72;80.02
34374;BME280;20637;55.770;37.592;2024-01-30T05:41:50;100771.16;;;1.76;80.29
34374;BME280;20637;55.770;37.592;2024-01-30T05:44:15;100772.59;;;1.82;80.18
34374;BME280;20637;55.770;37.592;2024-01-30T05:46:41;100769.78;;;1.85;80.07
34374;BME280;20637;55.770;37.592;2024-01-30T05:49:07;100772.53;;;1.83;79.84
34374;BME280;20637;55.770;37.592;2024-01-30T05:51:33;100782.31;;;1.83;79.50
34374;BME280;20637;55.770;37.592;2024-01-30T05:53:58;100773.63;;;1.79;79.67
34374;BME280;20637;55.770;37.592;2024-01-30T05:56:24;100784.22;;;1.81;79.79
34374;BME280;20637;55.770;37.592;2024-01-30T05:58:50;100793.13;;;1.80;79.72
34374;BME280;20637;55.770;37.592;2024-01-30T06:01:16;100790.13;;;1.86;79.69
34374;BME280;20637;55.770;37.592;2024-01-30T06:03:42;100792.34;;;1.93;79.71
34374;BME280;20637;55.770;37.592;2024-01-30T06:06:09;100797.59;;;1.95;80.14
34374;BME280;20637;55.770;37.592;2024-01-30T06:08:34;100794.94;;;1.95;79.60
34374;BME280;20637;55.770;37.592;2024-01-30T06:11:00;100793.91;;;1.98;79.50
34374;BME280;20637;55.770;37.592;2024-01-30T06:13:26;100796.56;;;1.98;79.43
34374;BME280;20637;55.770;37.592;2024-01-30T06:15:52;100799.34;;;1.96;79.35
34374;BME280;20637;55.770;37.592;2024-01-30T06:18:18;100795.88;;;1.94;79.33
34374;BME280;20637;55.770;37.592;2024-01-30T06:20:44;100804.03;;;1.91;79.17
34374;BME280;20637;55.770;37.592;2024-01-30T06:23:09;100801.22;;;1.94;79.41
34374;BME280;20637;55.770;37.592;2024-01-30T06:25:35;100798.22;;;2.00;79.28
34374;BME280;20637;55.770;37.592;2024-01-30T06:28:01;100802.44;;;2.04;79.30
34374;BME280;20637;55.770;37.592;2024-01-30T06:30:26;100804.41;;;2.01;78.94
34374;BME280;20637;55.770;37.592;2024-01-30T06:32:52;100804.47;;;1.99;79.17
34374;BME280;20637;55.770;37.592;2024-01-30T06:35:18;100816.94;;;1.99;79.35
34374;BME280;20637;55.770;37.592;2024-01-30T06:37:44;100815.22;;;1.98;79.14
34374;BME280;20637;55.770;37.592;2024-01-30T06:40:10;100811.78;;;1.96;79.23
34374;BME280;20637;55.770;37.592;2024-01-30T06:42:35;100812.41;;;2.01;79.29
34374;BME280;20637;55.770;37.592;2024-01-30T06:45:01;100811.44;;;2.02;79.00
34374;BME280;20637;55.770;37.592;2024-01-30T06:47:29;100818.47;;;2.03;79.03
34374;BME280;20637;55.770;37.592;2024-01-30T06:49:56;100821.84;;;2.06;79.13
34374;BME280;20637;55.770;37.592;2024-01-30T06:52:21;100825.28;;;2.08;78.93
34374;BME280;20637;55.770;37.592;2024-01-30T06:54:47;100824.50;;;2.06;78.88
34374;BME280;20637;55.770;37.592;2024-01-30T06:57:13;100825.28;;;2.08;79.09
34374;BME280;20637;55.770;37.592;2024-01-30T06:59:39;100821.50;;;2.12;79.11
34374;BME280;20637;55.770;37.592;2024-01-30T07:02:09;100824.06;;;2.14;78.84
34374;BME280;20637;55.770;37.592;2024-01-30T07:04:36;100844.69;;;2.10;78.79
34374;BME280;20637;55.770;37.592;2024-01-30T07:07:03;100826.97;;;2.09;78.69
34374;BME280;20637;55.770;37.592;2024-01-30T07:09:30;100823.44;;;2.09;78.77
34374;BME280;20637;55.770;37.592;2024-01-30T07:11:56;100825.28;;;2.08;78.75
34374;BME280;20637;55.770;37.592;2024-01-30T07:14:24;100842.22;;;2.07;78.66
34374;BME280;20637;55.770;37.592;2024-01-30T07:16:49;100835.84;;;2.10;78.70
34374;BME280;20637;55.770;37.592;2024-01-30T07:19:16;100839.13;;;2.15;78.63
34374;BME280;20637;55.770;37.592;2024-01-30T07:21:42;100836.44;;;2.15;78.51
34374;BME280;20637;55.770;37.592;2024-01-30T07:24:07;100842.63;;;2.15;78.69
34374;BME280;20637;55.770;37.592;2024-01-30T07:26:33;100846.06;;;2.17;78.58
34374;BME280;20637;55.770;37.592;2024-01-30T07:28:59;100845.88;;;2.20;78.67
34374;BME280;20637;55.770;37.592;2024-01-30T07:31:24;100853.03;;;2.20;78.65
34374;BME280;20637;55.770;37.592;2024-01-30T07:33:50;100849.66;;;2.16;78.57
34374;BME280;20637;55.770;37.592;2024-01-30T07:36:16;100849.53;;;2.19;78.39
34374;BME280;20637;55.770;37.592;2024-01-30T07:38:41;100850.53;;;2.17;78.75
34374;BME280;20637;55.770;37.592;2024-01-30T07:41:07;100854.16;;;2.16;78.61
34374;BME280;20637;55.770;37.592;2024-01-30T07:43:33;100855.00;;;2.16;78.61
34374;BME280;20637;55.770;37.592;2024-01-30T07:45:59;100859.38;;;2.17;78.57
34374;BME280;20637;55.770;37.592;2024-01-30T07:48:27;100861.88;;;2.20;78.70
34374;BME280;20637;55.770;37.592;2024-01-30T07:50:52;100861.53;;;2.26;78.59
34374;BME280;20637;55.770;37.592;2024-01-30T07:53:18;100848.97;;;2.28;78.61
34374;BME280;20637;55.770;37.592;2024-01-30T07:55:44;100850.72;;;2.29;78.37
34374;BME280;20637;55.770;37.592;2024-01-30T07:58:12;100848.84;;;2.31;78.39
34374;BME280;20637;55.770;37.592;2024-01-30T08:00:38;100848.84;;;2.31;78.30
34374;BME280;20637;55.770;37.592;2024-01-30T08:03:04;100854.84;;;2.35;78.40
34374;BME280;20637;55.770;37.592;2024-01-30T08:05:30;100854.06;;;2.33;78.11
34374;BME280;20637;55.770;37.592;2024-01-30T08:07:56;100848.66;;;2.34;78.32
34374;BME280;20637;55.770;37.592;2024-01-30T08:10:21;100847.59;;;2.37;78.11
34374;BME280;20637;55.770;37.592;2024-01-30T08:12:47;100835.22;;;2.36;78.26
34374;BME280;20637;55.770;37.592;2024-01-30T08:15:13;100838.94;;;2.33;78.33
34374;BME280;20637;55.770;37.592;2024-01-30T08:17:38;100839.38;;;2.26;78.15
34374;BME280;20637;55.770;37.592;2024-01-30T08:20:05;100845.88;;;2.20;78.29
34374;BME280;20637;55.770;37.592;2024-01-30T08:22:32;100839.00;;;2.16;78.17
34374;BME280;20637;55.770;37.592;2024-01-30T08:24:58;100858.63;;;2.15;78.33
34374;BME280;20637;55.770;37.592;2024-01-30T08:27:23;100853.03;;;2.20;78.39
34374;BME280;20637;55.770;37.592;2024-01-30T08:29:49;100851.81;;;2.25;78.53
34374;BME280;20637;55.770;37.592;2024-01-30T08:32:15;100857.06;;;2.27;78.47
34374;BME280;20637;55.770;37.592;2024-01-30T08:34:41;100857.84;;;2.29;78.35
34374;BME280;20637;55.770;37.592;2024-01-30T08:37:07;100848.66;;;2.34;78.58
34374;BME280;20637;55.770;37.592;2024-01-30T08:39:33;100849.66;;;2.32;78.46
34374;BME280;20637;55.770;37.592;2024-01-30T08:41:58;100842.63;;;2.31;78.34
34374;BME280;20637;55.770;37.592;2024-01-30T08:44:24;100848.84;;;2.31;78.35
34374;BME280;20637;55.770;37.592;2024-01-30T08:46:50;100848.84;;;2.31;78.23
34374;BME280;20637;55.770;37.592;2024-01-30T08:49:16;100841.41;;;2.36;78.29
34374;BME280;20637;55.770;37.592;2024-01-30T08:51:42;100843.13;;;2.37;78.57
34374;BME280;20637;55.770;37.592;2024-01-30T08:54:07;100843.75;;;2.43;78.12
34374;BME280;20637;55.770;37.592;2024-01-30T08:56:33;100864.88;;;2.46;78.41
34374;BME280;20637;55.770;37.592;2024-01-30T08:58:59;100842.69;;;2.45;78.09
34374;BME280;20637;55.770;37.592;2024-01-30T09:01:25;100856.81;;;2.47;78.11
34374;BME280;20637;55.770;37.592;2024-01-30T09:03:50;100839.97;;;2.47;78.18
34374;BME280;20637;55.770;37.592;2024-01-30T09:06:16;100842.03;;;2.42;78.21
34374;BME280;20637;55.770;37.592;2024-01-30T09:08:42;100845.63;;;2.40;78.09
34374;BME280;20637;55.770;37.592;2024-01-30T09:11:12;100848.28;;;2.40;78.26
34374;BME280;20637;55.770;37.592;2024-01-30T09:13:38;100852.94;;;2.37;78.17
34374;BME280;20637;55.770;37.592;2024-01-30T09:16:04;100854.16;;;2.31;78.12
34374;BME280;20637;55.770;37.592;2024-01-30T09:18:30;100851.50;;;2.31;78.42
34374;BME280;20637;55.770;37.592;2024-01-30T09:20:56;100850.72;;;2.29;78.04
34374;BME280;20637;55.770;37.592;2024-01-30T09:23:22;100849.94;;;2.27;78.22
34374;BME280;20637;55.770;37.592;2024-01-30T09:25:48;100847.28;;;2.27;78.47
34374;BME280;20637;55.770;37.592;2024-01-30T09:28:14;100842.63;;;2.31;78.31
34374;BME280;20637;55.770;37.592;2024-01-30T09:30:39;100845.81;;;2.37;78.70
34374;BME280;20637;55.770;37.592;2024-01-30T09:33:06;100846.22;;;2.46;78.61
34374;BME280;20637;55.770;37.592;2024-01-30T09:35:32;100845.28;;;2.47;78.41
34374;BME280;20637;55.770;37.592;2024-01-30T09:37:59;100837.63;;;2.40;78.28
34374;BME280;20637;55.770;37.592;2024-01-30T09:40:25;100843.91;;;2.39;78.50
34374;BME280;20637;55.770;37.592;2024-01-30T09:42:51;100831.84;;;2.48;78.58
34374;BME280;20637;55.770;37.592;2024-01-30T09:45:18;100838.56;;;2.55;78.63
34374;BME280;20637;55.770;37.592;2024-01-30T09:47:45;100842.50;;;2.64;78.77
34374;BME280;20637;55.770;37.592;2024-01-30T09:50:12;100836.16;;;2.66;78.48
34374;BME280;20637;55.770;37.592;2024-01-30T09:52:38;100829.84;;;2.67;78.43
34374;BME280;20637;55.770;37.592;2024-01-30T09:55:06;100820.91;;;2.68;78.32
34374;BME280;20637;55.770;37.592;2024-01-30T09:57:32;100819.19;;;2.67;78.26
34374;BME280;20637;55.770;37.592;2024-01-30T09:59:58;100827.09;;;2.69;78.40
34374;BME280;20637;55.770;37.592;2024-01-30T10:02:23;100826.25;;;2.68;78.13
34374;BME280;20637;55.770;37.592;2024-01-30T10:04:50;100830.09;;;2.63;77.86
34374;BME280;20637;55.770;37.592;2024-01-30T10:07:18;100829.28;;;2.62;78.00
34374;BME280;20637;55.770;37.592;2024-01-30T10:09:45;100822.81;;;2.66;77.77
34374;BME280;20637;55.770;37.592;2024-01-30T10:12:11;100824.31;;;2.70;78.18
34374;BME280;20637;55.770;37.592;2024-01-30T10:14:41;100823.66;;;2.67;77.82
34374;BME280;20637;55.770;37.592;2024-01-30T10:17:11;100843.84;;;2.71;77.78
34374;BME280;20637;55.770;37.592;2024-01-30T10:19:40;100840.84;;;2.77;78.15
34374;BME280;20637;55.770;37.592;2024-01-30T10:22:06;100830.94;;;2.79;78.01
34374;BME280;20637;55.770;37.592;2024-01-30T10:24:35;100842.03;;;2.87;78.11
34374;BME280;20637;55.770;37.592;2024-01-30T10:27:01;100833.06;;;2.88;77.95
34374;BME280;20637;55.770;37.592;2024-01-30T10:29:27;100839.28;;;2.88;77.42
34374;BME280;20637;55.770;37.592;2024-01-30T10:32:04;100840.81;;;2.93;77.76
34374;BME280;20637;55.770;37.592;2024-01-30T10:34:30;100837.47;;;2.89;77.79
34374;BME280;20637;55.770;37.592;2024-01-30T10:37:09;100831.34;;;2.87;77.65
34374;BME280;20637;55.770;37.592;2024-01-30T10:39:41;100830.50;;;2.86;77.39
34374;BME280;20637;55.770;37.592;2024-01-30T10:42:15;100831.53;;;2.84;77.65
34374;BME280;20637;55.770;37.592;2024-01-30T10:45:09;100827.34;;;2.80;77.35
34374;BME280;20637;55.770;37.592;2024-01-30T10:47:42;100818.28;;;2.82;77.42
34374;BME280;20637;55.770;37.592;2024-01-30T10:50:09;100819.81;;;2.86;77.31
34374;BME280;20637;55.770;37.592;2024-01-30T10:52:36;100828.78;;;2.85;77.58
34374;BME280;20637;55.770;37.592;2024-01-30T10:55:04;100839.16;;;2.90;77.54
34374;BME280;20637;55.770;37.592;2024-01-30T10:57:34;100827.38;;;2.94;77.56
34374;BME280;20637;55.770;37.592;2024-01-30T11:00:02;100835.09;;;2.99;77.37
34374;BME280;20637;55.770;37.592;2024-01-30T11:02:40;100828.19;;;3.10;77.62
34374;BME280;20637;55.770;37.592;2024-01-30T11:05:08;100834.28;;;3.12;77.21
34374;BME280;20637;55.770;37.592;2024-01-30T11:07:34;100831.63;;;3.12;76.94
34374;BME280;20637;55.770;37.592;2024-01-30T11:10:02;100831.03;;;3.07;77.07
34374;BME280;20637;55.770;37.592;2024-01-30T11:12:37;100833.03;;;3.04;76.73
34374;BME280;20637;55.770;37.592;2024-01-30T11:15:07;100831.22;;;3.04;76.81
34374;BME280;20637;55.770;37.592;2024-01-30T11:20:25;100829.41;;;3.05;77.11
34374;BME280;20637;55.770;37.592;2024-01-30T11:22:53;100832.66;;;3.10;77.05
34374;BME280;20637;55.770;37.592;2024-01-30T11:25:20;100842.31;;;3.12;77.19
34374;BME280;20637;55.770;37.592;2024-01-30T11:27:50;100838.16;;;3.07;76.88
34374;BME280;20637;55.770;37.592;2024-01-30T11:30:25;100841.03;;;3.04;76.76
34374;BME280;20637;55.770;37.592;2024-01-30T11:33:28;100838.25;;;3.05;76.60
34374;BME280;20637;55.770;37.592;2024-01-30T11:35:58;100850.09;;;3.01;76.58
34374;BME280;20637;55.770;37.592;2024-01-30T11:38:26;100858.25;;;2.98;76.79
34374;BME280;20637;55.770;37.592;2024-01-30T11:40:54;100856.72;;;2.94;76.89
34374;BME280;20637;55.770;37.592;2024-01-30T11:43:20;100864.72;;;2.94;76.93
34374;BME280;20637;55.770;37.592;2024-01-30T11:45:46;100864.44;;;2.99;76.96
34374;BME280;20637;55.770;37.592;2024-01-30T11:48:12;100864.25;;;3.02;76.96
34374;BME280;20637;55.770;37.592;2024-01-30T11:50:39;100873.72;;;3.07;77.04
34374;BME280;20637;55.770;37.592;2024-01-30T11:53:06;100876.19;;;3.10;76.90
34374;BME280;20637;55.770;37.592;2024-01-30T11:55:32;100880.41;;;3.14;77.00
34374;BME280;20637;55.770;37.592;2024-01-30T11:57:58;100865.19;;;3.16;77.02
34374;BME280;20637;55.770;37.592;2024-01-30T12:00:24;100863.44;;;3.15;76.64
34374;BME280;20637;55.770;37.592;2024-01-30T12:02:54;100875.94;;;3.15;76.87
34374;BME280;20637;55.770;37.592;2024-01-30T12:05:24;100875.53;;;3.07;76.74
34374;BME280;20637;55.770;37.592;2024-01-30T12:07:50;100882.84;;;3.03;76.57
34374;BME280;20637;55.770;37.592;2024-01-30T12:10:17;100879.50;;;3.00;76.47
34374;BME280;20637;55.770;37.592;2024-01-30T12:12:49;100882.25;;;2.98;76.64
34374;BME280;20637;55.770;37.592;2024-01-30T12:15:16;100873.50;;;2.96;76.72
34374;BME280;20637;55.770;37.592;2024-01-30T12:17:42;100886.84;;;2.96;76.71
34374;BME280;20637;55.770;37.592;2024-01-30T12:20:11;100881.31;;;2.99;76.76
34374;BME280;20637;55.770;37.592;2024-01-30T12:22:40;100883.78;;;3.02;76.58
34374;BME280;20637;55.770;37.592;2024-01-30T12:25:10;100877.31;;;3.06;76.72
34374;BME280;20637;55.770;37.592;2024-01-30T12:27:36;100874.38;;;3.11;77.05
34374;BME280;20637;55.770;37.592;2024-01-30T12:30:06;100891.25;;;3.11;77.03
34374;BME280;20637;55.770;37.592;2024-01-30T12:32:36;100880.78;;;3.08;76.80
34374;BME280;20637;55.770;37.592;2024-01-30T12:35:03;100875.53;;;3.07;76.60
34374;BME280;20637;55.770;37.592;2024-01-30T12:37:30;100876.56;;;3.04;76.94
34374;BME280;20637;55.770;37.592;2024-01-30T12:39:56;100878.13;;;3.08;77.00
34374;BME280;20637;55.770;37.592;2024-01-30T12:42:22;100877.81;;;3.13;76.66
34374;BME280;20637;55.770;37.592;2024-01-30T12:44:48;100868.88;;;3.14;76.43
34374;BME280;20637;55.770;37.592;2024-01-30T12:47:15;100874.00;;;3.17;76.58
34374;BME280;20637;55.770;37.592;2024-01-30T12:49:44;100872.41;;;3.14;76.83